Time;durP1;ratioP1;P1;durP2;ratioP2;P2;SDS_P1;SDS_P2;PMS_P1;PMS_P2;Temp;Humidity;BMP_temperature;BMP_pressure;BME280_temperature;BME280_humidity;BME280_pressure;Samples;Min_cycle;Max_cycle;Signal;HPM_P1;HPM_P2
2021/09/02 00:01:28;;;;;;;8.32;5.28;;;;;;;;;;5010799;28;20540;-87
2021/09/02 00:03:54;;;;;;;9.15;5.35;;;;;;;;;;5008952;28;20032;-87
2021/09/02 00:06:19;;;;;;;8.07;5.38;;;;;;;;;;5006310;28;20082;-86
2021/09/02 00:08:45;;;;;;;10.50;5.30;;;;;;;;;;5009935;28;20370;-87
2021/09/02 00:11:11;;;;;;;10.05;6.22;;;;;;;;;;5009935;28;20457;-89
2021/09/02 00:13:38;;;;;;;8.07;5.57;;;;;;;;;;5009824;28;20061;-87
2021/09/02 00:16:04;;;;;;;9.27;5.60;;;;;;;;;;5010579;28;20033;-87
2021/09/02 00:18:30;;;;;;;12.38;6.85;;;;;;;;;;5011020;28;20235;-88
2021/09/02 00:20:55;;;;;;;12.40;5.47;;;;;;;;;;5011612;28;20022;-88
2021/09/02 00:23:21;;;;;;;11.32;6.65;;;;;;;;;;5010693;28;20101;-88
2021/09/02 00:25:46;;;;;;;8.20;5.80;;;;;;;;;;5011307;28;20480;-88
2021/09/02 00:28:12;;;;;;;9.13;5.55;;;;;;;;;;5013828;28;20502;-87
2021/09/02 00:30:37;;;;;;;8.60;4.72;;;;;;;;;;5014898;28;20056;-88
2021/09/02 00:33:03;;;;;;;10.55;5.93;;;;;;;;;;5014550;28;20025;-88
2021/09/02 00:35:28;;;;;;;11.00;6.25;;;;;;;;;;5012994;28;20026;-87
2021/09/02 00:37:54;;;;;;;9.93;6.20;;;;;;;;;;5014556;28;20025;-88
2021/09/02 00:40:19;;;;;;;9.68;5.93;;;;;;;;;;5014690;28;20064;-88
2021/09/02 00:42:45;;;;;;;13.02;5.43;;;;;;;;;;5014196;28;20536;-88
2021/09/02 00:45:11;;;;;;;9.13;5.25;;;;;;;;;;4996779;28;20484;-88
2021/09/02 00:47:36;;;;;;;8.02;4.90;;;;;;;;;;5014543;28;20025;-87
2021/09/02 00:50:02;;;;;;;9.00;5.07;;;;;;;;;;5014343;28;20049;-87
2021/09/02 00:52:28;;;;;;;7.60;5.43;;;;;;;;;;5014500;28;20025;-87
2021/09/02 00:54:55;;;;;;;9.90;5.90;;;;;;;;;;5013605;28;20048;-87
2021/09/02 00:57:22;;;;;;;10.82;5.75;;;;;;;;;;4997241;28;20485;-87
2021/09/02 00:59:48;;;;;;;9.52;5.85;;;;;;;;;;4996769;28;20014;-88
2021/09/02 01:02:13;;;;;;;9.23;5.25;;;;;;;;;;5013287;28;20732;-87
2021/09/02 01:04:38;;;;;;;9.90;6.05;;;;;;;;;;5014282;28;20381;-88
2021/09/02 01:07:04;;;;;;;12.02;5.75;;;;;;;;;;4997066;28;20030;-88
2021/09/02 01:09:31;;;;;;;11.82;5.53;;;;;;;;;;5014768;28;20021;-86
2021/09/02 01:11:56;;;;;;;11.18;6.55;;;;;;;;;;5013391;28;20098;-87
2021/09/02 01:14:22;;;;;;;9.90;5.68;;;;;;;;;;5016832;28;20473;-86
2021/09/02 01:16:48;;;;;;;10.05;6.15;;;;;;;;;;5014207;28;20496;-87
2021/09/02 01:19:23;;;;;;;12.38;6.72;;;;;;;;;;5014029;28;20368;-87
2021/09/02 01:21:48;;;;;;;10.15;5.78;;;;;;;;;;5013235;28;20347;-87
2021/09/02 01:24:14;;;;;;;8.45;5.53;;;;;;;;;;5013148;28;20068;-87
2021/09/02 01:26:39;;;;;;;9.23;6.03;;;;;;;;;;5013058;28;20050;-87
2021/09/02 01:29:07;;;;;;;10.00;5.53;;;;;;;;;;5013276;28;20030;-87
2021/09/02 01:31:35;;;;;;;9.35;5.43;;;;;;;;;;5013524;28;20104;-88
2021/09/02 01:34:00;;;;;;;9.57;5.90;;;;;;;;;;5012703;28;20374;-88
2021/09/02 01:36:26;;;;;;;11.85;6.13;;;;;;;;;;5019255;28;20052;-87
2021/09/02 01:38:51;;;;;;;12.73;5.93;;;;;;;;;;5003668;28;20108;-87
2021/09/02 01:41:16;;;;;;;11.25;5.82;;;;;;;;;;5015157;28;20276;-88
2021/09/02 01:43:42;;;;;;;9.77;5.90;;;;;;;;;;5014060;28;20105;-89
2021/09/02 01:46:07;;;;;;;12.07;6.40;;;;;;;;;;5014231;28;20017;-88
2021/09/02 01:48:34;;;;;;;8.98;5.55;;;;;;;;;;5012642;28;20380;-86
2021/09/02 01:50:59;;;;;;;9.73;5.40;;;;;;;;;;5011992;28;20114;-85
2021/09/02 01:53:24;;;;;;;9.98;5.03;;;;;;;;;;4994878;28;20021;-86
2021/09/02 01:55:50;;;;;;;8.93;5.25;;;;;;;;;;5016113;28;20033;-86
2021/09/02 01:58:16;;;;;;;10.90;5.55;;;;;;;;;;5012468;28;20116;-87
2021/09/02 02:00:41;;;;;;;10.48;5.82;;;;;;;;;;5012551;28;20504;-87
2021/09/02 02:03:07;;;;;;;9.90;6.50;;;;;;;;;;5012434;28;20054;-87
2021/09/02 02:05:33;;;;;;;8.85;5.95;;;;;;;;;;5009799;28;20021;-86
2021/09/02 02:07:59;;;;;;;10.02;5.70;;;;;;;;;;5012762;28;20026;-88
2021/09/02 02:10:27;;;;;;;16.85;6.00;;;;;;;;;;5013452;28;20033;-88
2021/09/02 02:13:02;;;;;;;8.82;5.78;;;;;;;;;;4994674;28;20076;-88
2021/09/02 02:15:28;;;;;;;9.68;5.15;;;;;;;;;;5012701;28;20081;-88
2021/09/02 02:17:54;;;;;;;11.32;5.95;;;;;;;;;;5013018;28;20014;-88
2021/09/02 02:20:20;;;;;;;7.45;4.80;;;;;;;;;;5011533;28;20037;-88
2021/09/02 02:22:49;;;;;;;11.43;5.82;;;;;;;;;;4995474;28;20806;-88
2021/09/02 02:25:15;;;;;;;8.90;5.13;;;;;;;;;;5013132;28;20117;-88
2021/09/02 02:27:41;;;;;;;8.18;5.07;;;;;;;;;;5013481;28;20057;-88
2021/09/02 02:30:08;;;;;;;9.00;5.28;;;;;;;;;;5011971;28;20029;-88
2021/09/02 02:32:37;;;;;;;9.10;5.57;;;;;;;;;;5012706;28;20018;-88
2021/09/02 02:35:07;;;;;;;9.57;6.28;;;;;;;;;;5012385;28;20427;-87
2021/09/02 02:37:36;;;;;;;8.43;5.82;;;;;;;;;;5011542;28;20199;-89
2021/09/02 02:40:08;;;;;;;8.90;5.32;;;;;;;;;;5012726;28;20040;-88
2021/09/02 02:42:34;;;;;;;8.70;5.03;;;;;;;;;;4994817;28;20041;-88
2021/09/02 02:44:59;;;;;;;9.23;5.80;;;;;;;;;;5011099;28;20026;-87
2021/09/02 02:47:24;;;;;;;11.02;6.20;;;;;;;;;;5011736;28;20104;-88
2021/09/02 02:49:49;;;;;;;10.60;5.40;;;;;;;;;;5010733;28;20095;-87
2021/09/02 02:52:15;;;;;;;8.75;5.03;;;;;;;;;;5011806;28;20101;-88
2021/09/02 02:54:40;;;;;;;8.80;4.68;;;;;;;;;;4992871;28;20376;-88
2021/09/02 02:57:06;;;;;;;9.30;5.80;;;;;;;;;;5010505;28;20489;-88
2021/09/02 02:59:31;;;;;;;9.75;6.10;;;;;;;;;;5010751;28;20022;-87
2021/09/02 03:01:56;;;;;;;9.98;5.85;;;;;;;;;;5011287;28;20025;-88
2021/09/02 03:04:22;;;;;;;9.30;6.00;;;;;;;;;;5011863;28;20469;-88
2021/09/02 03:06:47;;;;;;;10.05;6.10;;;;;;;;;;5011473;28;20053;-87
2021/09/02 03:09:12;;;;;;;7.45;5.10;;;;;;;;;;5013104;28;20054;-86
2021/09/02 03:11:37;;;;;;;9.80;5.57;;;;;;;;;;5013133;28;20045;-86
2021/09/02 03:14:03;;;;;;;7.97;5.60;;;;;;;;;;5011091;28;20273;-86
2021/09/02 03:16:29;;;;;;;10.55;6.07;;;;;;;;;;5010787;28;20709;-86
2021/09/02 03:18:54;;;;;;;7.53;5.28;;;;;;;;;;5010117;28;20105;-85
2021/09/02 03:21:19;;;;;;;8.63;5.60;;;;;;;;;;5009898;28;20030;-86
2021/09/02 03:23:45;;;;;;;9.75;6.18;;;;;;;;;;5011391;28;20018;-87
2021/09/02 03:26:11;;;;;;;9.45;5.28;;;;;;;;;;5010739;28;20029;-86
2021/09/02 03:28:36;;;;;;;9.15;6.43;;;;;;;;;;4993055;28;20053;-86
2021/09/02 03:31:02;;;;;;;10.45;6.32;;;;;;;;;;5010855;28;20026;-87
2021/09/02 03:33:30;;;;;;;9.27;5.03;;;;;;;;;;5012157;28;20053;-87
2021/09/02 03:35:55;;;;;;;12.00;7.05;;;;;;;;;;4992087;28;20131;-87
2021/09/02 03:38:20;;;;;;;10.63;6.30;;;;;;;;;;5010971;28;20493;-87
2021/09/02 03:40:46;;;;;;;10.93;5.93;;;;;;;;;;5011400;28;20378;-87
2021/09/02 03:43:11;;;;;;;10.07;5.70;;;;;;;;;;5010296;28;20348;-87
2021/09/02 03:45:36;;;;;;;8.32;5.43;;;;;;;;;;5010425;28;20030;-87
2021/09/02 03:48:02;;;;;;;10.43;5.70;;;;;;;;;;4995809;28;20073;-87
2021/09/02 03:50:27;;;;;;;9.90;5.50;;;;;;;;;;4993033;28;20296;-86
2021/09/02 03:52:53;;;;;;;9.50;6.03;;;;;;;;;;5010536;28;20028;-86
2021/09/02 03:55:18;;;;;;;9.85;5.53;;;;;;;;;;5010703;28;20686;-87
2021/09/02 03:57:43;;;;;;;10.15;6.28;;;;;;;;;;5010960;28;20022;-88
2021/09/02 04:00:10;;;;;;;9.52;5.70;;;;;;;;;;5011391;28;20044;-88
2021/09/02 04:02:36;;;;;;;11.63;6.30;;;;;;;;;;4993393;28;20137;-88
2021/09/02 04:05:01;;;;;;;9.43;5.80;;;;;;;;;;5012545;28;20117;-86
2021/09/02 04:07:26;;;;;;;8.77;5.10;;;;;;;;;;5010775;28;20072;-88
2021/09/02 04:09:51;;;;;;;13.70;6.72;;;;;;;;;;5011145;28;20018;-87
2021/09/02 04:12:17;;;;;;;11.70;6.40;;;;;;;;;;5009325;28;20037;-87
2021/09/02 04:14:42;;;;;;;10.73;5.47;;;;;;;;;;5011028;28;20284;-88
2021/09/02 04:17:07;;;;;;;8.23;5.68;;;;;;;;;;5010578;28;20396;-88
2021/09/02 04:19:33;;;;;;;12.75;5.82;;;;;;;;;;5010342;28;20018;-87
2021/09/02 04:21:58;;;;;;;8.93;5.47;;;;;;;;;;5010850;28;20021;-86
2021/09/02 04:24:23;;;;;;;12.18;6.32;;;;;;;;;;5014522;28;20478;-87
2021/09/02 04:26:49;;;;;;;10.87;6.33;;;;;;;;;;5009753;28;20033;-88
2021/09/02 04:29:14;;;;;;;10.10;6.25;;;;;;;;;;4992428;28;20269;-86
2021/09/02 04:31:39;;;;;;;11.43;7.05;;;;;;;;;;5009121;28;20047;-86
2021/09/02 04:34:05;;;;;;;12.82;6.78;;;;;;;;;;5009889;28;20032;-87
2021/09/02 04:36:30;;;;;;;10.38;7.03;;;;;;;;;;5009976;28;20126;-87
2021/09/02 04:38:56;;;;;;;13.37;6.83;;;;;;;;;;5010913;28;20061;-88
2021/09/02 04:41:21;;;;;;;11.57;6.72;;;;;;;;;;5010843;28;20093;-88
2021/09/02 04:43:46;;;;;;;8.67;5.47;;;;;;;;;;5010593;28;20084;-87
2021/09/02 04:46:11;;;;;;;8.32;6.10;;;;;;;;;;5010802;28;20268;-89
2021/09/02 04:48:37;;;;;;;10.05;6.90;;;;;;;;;;5011511;28;20377;-88
2021/09/02 04:51:02;;;;;;;10.07;6.20;;;;;;;;;;4993470;28;20045;-88
2021/09/02 04:53:27;;;;;;;9.18;6.25;;;;;;;;;;4991994;28;20085;-88
2021/09/02 04:55:53;;;;;;;12.68;6.68;;;;;;;;;;5011511;28;20054;-88
2021/09/02 04:58:18;;;;;;;14.77;6.37;;;;;;;;;;5012391;28;20372;-87
2021/09/02 05:00:43;;;;;;;10.67;6.07;;;;;;;;;;5020081;28;20018;-87
2021/09/02 05:03:09;;;;;;;11.93;6.25;;;;;;;;;;5017803;28;20284;-90
2021/09/02 05:05:34;;;;;;;10.43;6.28;;;;;;;;;;5011222;28;20025;-87
2021/09/02 05:08:00;;;;;;;12.32;5.68;;;;;;;;;;5011068;28;20053;-90
2021/09/02 05:10:26;;;;;;;8.63;5.72;;;;;;;;;;5011590;28;20026;-89
2021/09/02 05:12:51;;;;;;;8.90;6.10;;;;;;;;;;4993473;28;20030;-87
2021/09/02 05:15:19;;;;;;;9.03;6.27;;;;;;;;;;5013552;28;20022;-89
2021/09/02 05:17:45;;;;;;;9.18;6.55;;;;;;;;;;5014623;28;20607;-89
2021/09/02 05:20:11;;;;;;;11.45;6.68;;;;;;;;;;5014870;28;20436;-88
2021/09/02 05:22:36;;;;;;;9.05;6.00;;;;;;;;;;5015381;28;20030;-89
2021/09/02 05:25:02;;;;;;;13.38;6.05;;;;;;;;;;5013505;28;20026;-89
2021/09/02 05:27:27;;;;;;;11.65;6.55;;;;;;;;;;5014578;28;20095;-88
2021/09/02 05:29:52;;;;;;;10.88;6.15;;;;;;;;;;5012851;28;20461;-85
2021/09/02 05:32:18;;;;;;;12.47;7.13;;;;;;;;;;5012389;28;20075;-84
2021/09/02 05:34:43;;;;;;;10.53;6.63;;;;;;;;;;5012570;28;20355;-88
2021/09/02 05:37:08;;;;;;;10.70;6.57;;;;;;;;;;5013657;28;20727;-87
2021/09/02 05:39:34;;;;;;;11.27;7.67;;;;;;;;;;5011737;28;20021;-84
2021/09/02 05:41:59;;;;;;;9.80;6.22;;;;;;;;;;5012212;28;20265;-88
2021/09/02 05:44:24;;;;;;;10.73;6.55;;;;;;;;;;5013154;28;20026;-89
2021/09/02 05:46:51;;;;;;;10.87;6.93;;;;;;;;;;5011210;28;20498;-83
2021/09/02 05:49:16;;;;;;;22.08;14.85;;;;;;;;;;4994825;28;20409;-81
2021/09/02 05:51:41;;;;;;;12.98;8.57;;;;;;;;;;5010675;28;20056;-86
2021/09/02 05:54:06;;;;;;;12.05;7.32;;;;;;;;;;5011234;28;20384;-84
2021/09/02 05:56:32;;;;;;;12.23;8.52;;;;;;;;;;5010380;28;20112;-84
2021/09/02 05:58:57;;;;;;;15.10;9.60;;;;;;;;;;5005815;28;20026;-86
2021/09/02 06:01:22;;;;;;;13.43;6.93;;;;;;;;;;4999371;28;20256;-86
2021/09/02 06:03:48;;;;;;;10.95;7.63;;;;;;;;;;4994433;28;20387;-85
2021/09/02 06:06:13;;;;;;;11.57;7.10;;;;;;;;;;4994471;28;20082;-86
2021/09/02 06:08:38;;;;;;;10.38;6.75;;;;;;;;;;5011285;28;20026;-84
2021/09/02 06:11:05;;;;;;;11.63;6.80;;;;;;;;;;5011611;28;20029;-85
2021/09/02 06:13:30;;;;;;;10.82;6.63;;;;;;;;;;5011516;28;20643;-85
2021/09/02 06:15:55;;;;;;;10.85;6.90;;;;;;;;;;5012503;28;20017;-88
2021/09/02 06:18:21;;;;;;;15.63;6.63;;;;;;;;;;4994377;28;20076;-87
2021/09/02 06:20:46;;;;;;;9.82;6.68;;;;;;;;;;4993632;28;20022;-86
2021/09/02 06:23:12;;;;;;;13.48;7.40;;;;;;;;;;5011297;28;20021;-86
2021/09/02 06:25:37;;;;;;;11.23;6.68;;;;;;;;;;5010741;28;20030;-89
2021/09/02 06:28:04;;;;;;;10.80;7.13;;;;;;;;;;5013390;28;20117;-94
2021/09/02 06:30:39;;;;;;;11.63;7.15;;;;;;;;;;4994186;28;20034;-91
2021/09/02 06:33:10;;;;;;;14.05;7.63;;;;;;;;;;5012390;28;20406;-91
2021/09/02 06:36:10;;;;;;;9.63;6.45;;;;;;;;;;5014464;28;20481;-94
2021/09/02 06:38:35;;;;;;;9.82;6.18;;;;;;;;;;4993197;28;20368;-91
2021/09/02 06:48:42;;;;;;;10.30;7.30;;;;;;;;;;4972442;28;20441;-88
2021/09/02 06:51:08;;;;;;;12.55;7.80;;;;;;;;;;4973191;28;20037;-90
2021/09/02 06:53:33;;;;;;;12.98;7.80;;;;;;;;;;4973410;28;20634;-89
2021/09/02 06:55:58;;;;;;;14.60;8.95;;;;;;;;;;4974785;28;20452;-87
2021/09/02 06:58:24;;;;;;;12.15;7.72;;;;;;;;;;4974071;28;20027;-86
2021/09/02 07:00:49;;;;;;;11.52;7.35;;;;;;;;;;4973233;28;20058;-87
2021/09/02 07:03:15;;;;;;;13.30;8.13;;;;;;;;;;4971798;28;20469;-90
2021/09/02 07:05:42;;;;;;;13.02;7.90;;;;;;;;;;4973268;28;20030;-86
2021/09/02 07:08:08;;;;;;;12.45;9.30;;;;;;;;;;4972828;28;20030;-88
2021/09/02 07:10:38;;;;;;;11.90;8.55;;;;;;;;;;4973699;28;20122;-91
2021/09/02 07:13:14;;;;;;;;;;;;;;;;;;;;;
2021/09/02 07:15:54;;;;;;;12.95;8.70;;;;;;;;;;4954687;28;20409;-92
2021/09/02 07:18:23;;;;;;;10.68;7.50;;;;;;;;;;4974243;28;20089;-92
2021/09/02 07:20:48;;;;;;;9.63;7.53;;;;;;;;;;4953559;28;20437;-89
2021/09/02 07:23:14;;;;;;;12.05;7.25;;;;;;;;;;4971756;28;20270;-89
2021/09/02 07:25:39;;;;;;;13.10;7.22;;;;;;;;;;4971996;28;20022;-89
2021/09/02 07:28:04;;;;;;;12.18;7.72;;;;;;;;;;4971236;28;20062;-87
2021/09/02 07:30:33;;;;;;;12.13;7.90;;;;;;;;;;4973129;28;20418;-89
2021/09/02 07:33:01;;;;;;;11.98;8.10;;;;;;;;;;4968192;28;20701;-91
2021/09/02 07:35:27;;;;;;;11.95;7.53;;;;;;;;;;4973634;28;20033;-89
2021/09/02 07:38:08;;;;;;;17.77;8.05;;;;;;;;;;4971802;28;20458;-90
2021/09/02 07:41:21;;;;;;;;;;;;;;;;;;;;;
2021/09/02 07:44:31;;;;;;;10.65;7.43;;;;;;;;;;4947887;29;20027;-91
2021/09/02 07:46:58;;;;;;;12.93;7.28;;;;;;;;;;4941130;28;20043;-90
2021/09/02 07:49:24;;;;;;;12.30;7.45;;;;;;;;;;4963897;28;20019;-87
2021/09/02 07:51:49;;;;;;;11.63;7.03;;;;;;;;;;4970249;28;20067;-90
2021/09/02 07:54:22;;;;;;;12.30;7.90;;;;;;;;;;4970546;28;20373;-92
2021/09/02 07:56:47;;;;;;;11.35;8.02;;;;;;;;;;4969036;28;20023;-90
2021/09/02 07:59:13;;;;;;;14.43;8.10;;;;;;;;;;4973832;28;20046;-89
2021/09/02 08:01:38;;;;;;;11.50;6.43;;;;;;;;;;4968039;28;20074;-90
2021/09/02 08:04:04;;;;;;;13.02;7.88;;;;;;;;;;4971962;28;20121;-90
2021/09/02 08:06:29;;;;;;;14.73;7.78;;;;;;;;;;4957917;28;20015;-90
2021/09/02 08:08:54;;;;;;;12.13;7.87;;;;;;;;;;4966124;28;20035;-89
2021/09/02 08:11:20;;;;;;;14.77;8.48;;;;;;;;;;4968586;28;20345;-87
2021/09/02 08:13:48;;;;;;;12.82;7.90;;;;;;;;;;4961015;28;20038;-89
2021/09/02 08:16:13;;;;;;;12.25;7.93;;;;;;;;;;4968861;28;20049;-89
2021/09/02 08:18:38;;;;;;;12.77;8.65;;;;;;;;;;4965298;28;20023;-88
2021/09/02 08:21:04;;;;;;;13.57;7.78;;;;;;;;;;4971347;28;20023;-90
2021/09/02 08:23:29;;;;;;;13.70;8.20;;;;;;;;;;4964714;28;20030;-89
2021/09/02 08:25:54;;;;;;;12.57;6.97;;;;;;;;;;4976890;28;20022;-89
2021/09/02 08:28:20;;;;;;;10.57;7.07;;;;;;;;;;4974006;28;20026;-88
2021/09/02 08:30:52;;;;;;;13.30;6.93;;;;;;;;;;4972957;28;20030;-92
2021/09/02 08:33:20;;;;;;;10.95;7.38;;;;;;;;;;4972344;28;20113;-91
2021/09/02 08:35:55;;;;;;;14.13;7.45;;;;;;;;;;4963983;28;20026;-89
2021/09/02 08:38:28;;;;;;;11.68;7.05;;;;;;;;;;4970966;28;20530;-91
2021/09/02 08:41:13;;;;;;;10.82;6.35;;;;;;;;;;4945222;28;20019;-91
2021/09/02 08:43:56;;;;;;;10.50;7.18;;;;;;;;;;4955789;28;20030;-89
2021/09/02 08:46:30;;;;;;;9.25;6.53;;;;;;;;;;4964487;28;20406;-90
2021/09/02 08:49:02;;;;;;;11.77;6.38;;;;;;;;;;4966759;28;20216;-89
2021/09/02 08:51:35;;;;;;;10.68;7.38;;;;;;;;;;4959397;28;20030;-90
2021/09/02 08:54:01;;;;;;;10.18;6.35;;;;;;;;;;4970758;28;20023;-88
2021/09/02 08:56:26;;;;;;;14.82;7.82;;;;;;;;;;4972649;28;20513;-88
2021/09/02 08:58:52;;;;;;;10.02;7.75;;;;;;;;;;4971009;28;20028;-90
2021/09/02 09:01:17;;;;;;;12.57;7.18;;;;;;;;;;4975225;28;20102;-87
2021/09/02 09:03:49;;;;;;;12.63;6.78;;;;;;;;;;4975431;28;20058;-91
2021/09/02 09:06:21;;;;;;;10.20;7.07;;;;;;;;;;4970635;28;20102;-89
2021/09/02 09:12:45;;;;;;;12.05;7.63;;;;;;;;;;4927816;28;20110;-91
2021/09/02 09:15:35;;;;;;;12.18;6.75;;;;;;;;;;4958200;28;20510;-88
2021/09/02 09:18:20;;;;;;;10.70;7.10;;;;;;;;;;4953735;28;20026;-93
2021/09/02 09:21:25;;;;;;;10.30;6.93;;;;;;;;;;4969240;28;20492;-82
2021/09/02 09:24:04;;;;;;;12.25;7.43;;;;;;;;;;4965681;28;20483;-84
2021/09/02 09:26:30;;;;;;;11.65;6.70;;;;;;;;;;4965391;28;20382;-82
2021/09/02 09:28:57;;;;;;;10.30;6.70;;;;;;;;;;4966133;28;20597;-83
2021/09/02 09:31:26;;;;;;;9.55;6.28;;;;;;;;;;4966562;28;20389;-84
2021/09/02 09:33:52;;;;;;;11.73;6.75;;;;;;;;;;4968737;28;20097;-84
2021/09/02 09:36:25;;;;;;;10.90;6.40;;;;;;;;;;4966563;28;20063;-83
2021/09/02 09:38:57;;;;;;;8.73;6.18;;;;;;;;;;4974763;28;20042;-85
2021/09/02 09:41:33;;;;;;;10.70;6.80;;;;;;;;;;4967321;28;20485;-88
2021/09/02 09:44:33;;;;;;;7.95;5.47;;;;;;;;;;4961506;28;20370;-85
2021/09/02 09:47:07;;;;;;;8.10;6.07;;;;;;;;;;4909748;29;20328;-84
2021/09/02 09:49:56;;;;;;;8.27;6.07;;;;;;;;;;4954464;28;20587;-84
2021/09/02 09:52:26;;;;;;;10.30;6.35;;;;;;;;;;4964759;28;20038;-85
2021/09/02 09:54:52;;;;;;;7.78;5.45;;;;;;;;;;4968701;28;20569;-86
2021/09/02 09:57:18;;;;;;;8.68;6.20;;;;;;;;;;4971460;28;20384;-87
2021/09/02 09:59:44;;;;;;;8.73;6.30;;;;;;;;;;4967988;28;20019;-90
2021/09/02 10:02:10;;;;;;;12.07;6.22;;;;;;;;;;4967765;28;20030;-92
2021/09/02 10:04:51;;;;;;;8.30;5.63;;;;;;;;;;4971908;28;20022;-96
2021/09/02 10:07:19;;;;;;;9.82;6.05;;;;;;;;;;4965141;28;20551;-83
2021/09/02 10:09:45;;;;;;;7.47;5.40;;;;;;;;;;4966686;28;20042;-86
2021/09/02 10:12:12;;;;;;;9.38;5.97;;;;;;;;;;4964152;28;20362;-87
2021/09/02 10:14:37;;;;;;;10.43;6.40;;;;;;;;;;4968134;28;20429;-85
2021/09/02 10:17:03;;;;;;;8.13;5.70;;;;;;;;;;4975067;28;20109;-86
2021/09/02 10:19:30;;;;;;;9.13;6.03;;;;;;;;;;4977683;28;20018;-85
2021/09/02 10:21:57;;;;;;;7.00;5.40;;;;;;;;;;4981203;28;20014;-84
2021/09/02 10:24:35;;;;;;;6.88;5.43;;;;;;;;;;4976176;28;20018;-86
2021/09/02 10:27:00;;;;;;;7.43;4.80;;;;;;;;;;4968915;28;20026;-86
2021/09/02 10:29:33;;;;;;;7.00;5.38;;;;;;;;;;4966959;28;20482;-84
2021/09/02 10:32:16;;;;;;;8.02;5.75;;;;;;;;;;4965255;28;20027;-84
2021/09/02 10:34:42;;;;;;;6.32;4.35;;;;;;;;;;4951803;28;20362;-89
2021/09/02 10:37:07;;;;;;;8.10;5.40;;;;;;;;;;4950566;28;20034;-89
2021/09/02 10:39:43;;;;;;;5.82;4.60;;;;;;;;;;4970488;28;20553;-89
2021/09/02 10:42:08;;;;;;;7.25;4.88;;;;;;;;;;4967645;28;20384;-88
2021/09/02 10:44:48;;;;;;;9.85;5.22;;;;;;;;;;4969397;28;20111;-89
2021/09/02 10:47:18;;;;;;;6.47;4.57;;;;;;;;;;4952399;28;20142;-88
2021/09/02 10:49:58;;;;;;;8.25;5.38;;;;;;;;;;4967922;28;20085;-88
2021/09/02 10:52:24;;;;;;;6.10;4.95;;;;;;;;;;4946556;28;20377;-85
2021/09/02 10:54:50;;;;;;;9.85;5.05;;;;;;;;;;4965112;28;20023;-88
2021/09/02 10:57:15;;;;;;;9.35;5.55;;;;;;;;;;4965049;28;20023;-89
2021/09/02 10:59:42;;;;;;;7.43;4.83;;;;;;;;;;4971680;28;20014;-88
2021/09/02 11:02:08;;;;;;;7.65;5.22;;;;;;;;;;4971096;28;20027;-89
2021/09/02 11:04:35;;;;;;;10.02;5.53;;;;;;;;;;4942854;29;20763;-91
2021/09/02 11:07:00;;;;;;;7.10;5.50;;;;;;;;;;4966985;28;20061;-88
2021/09/02 11:09:35;;;;;;;8.65;5.15;;;;;;;;;;4964955;28;20370;-90
2021/09/02 11:12:02;;;;;;;7.55;5.20;;;;;;;;;;4966375;28;20029;-89
2021/09/02 11:14:28;;;;;;;7.00;5.30;;;;;;;;;;4970661;28;20033;-90
2021/09/02 11:16:54;;;;;;;8.13;5.25;;;;;;;;;;4963086;28;20027;-88
2021/09/02 11:19:46;;;;;;;11.38;5.50;;;;;;;;;;4966862;28;20026;-87
2021/09/02 11:22:16;;;;;;;8.95;5.28;;;;;;;;;;4940295;28;20082;-87
2021/09/02 11:24:44;;;;;;;6.95;4.80;;;;;;;;;;4944584;28;20414;-89
2021/09/02 11:27:27;;;;;;;6.90;5.00;;;;;;;;;;4973687;28;20089;-89
2021/09/02 11:30:17;;;;;;;6.63;4.53;;;;;;;;;;4946310;28;20039;-90
2021/09/02 11:32:53;;;;;;;7.20;5.15;;;;;;;;;;4959021;28;20417;-88
2021/09/02 11:35:19;;;;;;;5.90;4.13;;;;;;;;;;4968542;28;20376;-88
2021/09/02 11:38:13;;;;;;;8.55;4.30;;;;;;;;;;4973489;28;20348;-93
2021/09/02 11:47:36;;;;;;;6.32;4.57;;;;;;;;;;4909249;29;20458;-94
2021/09/02 11:50:05;;;;;;;6.80;4.15;;;;;;;;;;4909329;29;20067;-88
2021/09/02 11:52:41;;;;;;;6.50;4.50;;;;;;;;;;4913161;29;20028;-86
2021/09/02 11:55:07;;;;;;;6.45;4.72;;;;;;;;;;4948661;28;20082;-89
2021/09/02 11:57:32;;;;;;;6.05;4.68;;;;;;;;;;4969779;28;20033;-88
2021/09/02 11:59:58;;;;;;;6.57;5.30;;;;;;;;;;4969392;28;20026;-88
2021/09/02 12:02:23;;;;;;;6.47;4.82;;;;;;;;;;4970890;28;20027;-88
2021/09/02 12:04:51;;;;;;;7.00;4.95;;;;;;;;;;4968923;28;20023;-86
2021/09/02 12:07:17;;;;;;;6.10;4.65;;;;;;;;;;4943021;28;20612;-87
2021/09/02 12:09:48;;;;;;;8.07;5.15;;;;;;;;;;4972468;28;20023;-90
2021/09/02 12:12:25;;;;;;;7.30;4.47;;;;;;;;;;4974230;28;20037;-88
2021/09/02 12:14:53;;;;;;;7.63;4.82;;;;;;;;;;4971271;28;20481;-89
2021/09/02 12:17:18;;;;;;;7.13;4.88;;;;;;;;;;4972982;28;20025;-90
2021/09/02 12:19:59;;;;;;;8.65;5.35;;;;;;;;;;4972249;28;20028;-92
2021/09/02 12:22:32;;;;;;;7.45;4.35;;;;;;;;;;4954603;28;20105;-89
2021/09/02 12:25:12;;;;;;;6.35;4.50;;;;;;;;;;4971821;28;20031;-88
2021/09/02 12:27:37;;;;;;;;;;;;;;;;;;4968814;28;20029;-86
2021/09/02 12:30:02;;;;;;;8.57;4.90;;;;;;;;;;4970498;28;19906;-89
2021/09/02 12:32:28;;;;;;;8.73;5.00;;;;;;;;;;4972238;28;20042;-88
2021/09/02 12:35:09;;;;;;;7.60;4.88;;;;;;;;;;4948831;28;20494;-90
2021/09/02 12:37:39;;;;;;;6.07;4.50;;;;;;;;;;4971383;28;20669;-88
2021/09/02 12:40:10;;;;;;;8.45;4.82;;;;;;;;;;4972761;28;20597;-88
2021/09/02 12:42:36;;;;;;;6.50;5.10;;;;;;;;;;4969176;28;20392;-87
2021/09/02 12:45:05;;;;;;;8.30;5.18;;;;;;;;;;4969674;28;20102;-87
2021/09/02 12:47:31;;;;;;;10.98;4.70;;;;;;;;;;4967028;28;20031;-89
2021/09/02 12:49:56;;;;;;;6.95;4.90;;;;;;;;;;4962665;28;20093;-87
2021/09/02 12:52:31;;;;;;;8.68;4.93;;;;;;;;;;4967743;28;20027;-88
2021/09/02 12:55:00;;;;;;;9.25;5.20;;;;;;;;;;4970341;28;20030;-87
2021/09/02 12:57:26;;;;;;;8.20;5.05;;;;;;;;;;4968630;28;20034;-88
2021/09/02 12:59:51;;;;;;;9.27;4.97;;;;;;;;;;4966397;28;20717;-88
2021/09/02 13:02:17;;;;;;;8.18;5.00;;;;;;;;;;4965991;28;20106;-89
2021/09/02 13:04:48;;;;;;;7.07;4.32;;;;;;;;;;4960938;28;20050;-89
2021/09/02 13:07:13;;;;;;;8.38;4.43;;;;;;;;;;4972224;28;20038;-91
2021/09/02 13:09:41;;;;;;;7.53;4.60;;;;;;;;;;4970895;28;20019;-90
2021/09/02 13:12:09;;;;;;;7.50;4.72;;;;;;;;;;4962880;28;20019;-93
2021/09/02 13:14:34;;;;;;;5.68;4.55;;;;;;;;;;4960151;28;20027;-87
2021/09/02 13:17:01;;;;;;;7.03;4.30;;;;;;;;;;4965107;28;20798;-88
2021/09/02 13:19:26;;;;;;;7.88;4.60;;;;;;;;;;4968323;28;20018;-88
2021/09/02 13:21:51;;;;;;;6.80;4.75;;;;;;;;;;4965757;28;20388;-88
2021/09/02 13:24:17;;;;;;;10.15;5.05;;;;;;;;;;4965582;28;20026;-89
2021/09/02 13:26:42;;;;;;;5.93;4.40;;;;;;;;;;4948705;28;20062;-88
2021/09/02 13:29:07;;;;;;;8.10;4.80;;;;;;;;;;4968422;28;20286;-89
2021/09/02 13:31:35;;;;;;;8.10;4.53;;;;;;;;;;4959084;28;20262;-88
2021/09/02 13:34:00;;;;;;;7.63;4.30;;;;;;;;;;4954553;28;20479;-86
2021/09/02 13:36:26;;;;;;;8.05;5.05;;;;;;;;;;4946074;28;20055;-85
2021/09/02 13:38:55;;;;;;;6.85;4.38;;;;;;;;;;4961183;28;20012;-84
2021/09/02 13:41:20;;;;;;;6.87;4.70;;;;;;;;;;4962140;28;20015;-86
2021/09/02 13:43:45;;;;;;;10.80;5.20;;;;;;;;;;4968916;28;20509;-85
2021/09/02 13:46:10;;;;;;;7.57;5.07;;;;;;;;;;4965494;28;20334;-85
2021/09/02 13:48:36;;;;;;;8.73;4.93;;;;;;;;;;4966035;28;20287;-85
2021/09/02 13:51:01;;;;;;;9.90;4.80;;;;;;;;;;4968643;28;20034;-86
2021/09/02 13:53:27;;;;;;;7.38;4.60;;;;;;;;;;4969755;28;20019;-84
2021/09/02 13:55:52;;;;;;;7.37;4.70;;;;;;;;;;4971138;28;20034;-86
2021/09/02 13:58:18;;;;;;;6.32;4.28;;;;;;;;;;4966438;28;20470;-89
2021/09/02 14:00:44;;;;;;;7.68;4.65;;;;;;;;;;4965372;28;20038;-85
2021/09/02 14:03:09;;;;;;;5.70;4.15;;;;;;;;;;4970659;28;20025;-84
2021/09/02 14:05:35;;;;;;;6.80;4.45;;;;;;;;;;4968519;28;20026;-86
2021/09/02 14:08:00;;;;;;;6.18;4.18;;;;;;;;;;4968280;28;20038;-85
2021/09/02 14:10:25;;;;;;;5.83;4.50;;;;;;;;;;4968733;28;20023;-85
2021/09/02 14:12:51;;;;;;;6.63;4.50;;;;;;;;;;4948833;28;20540;-85
2021/09/02 14:15:16;;;;;;;8.13;4.15;;;;;;;;;;4968120;28;20670;-85
2021/09/02 14:17:42;;;;;;;9.43;4.80;;;;;;;;;;4964846;28;20034;-90
2021/09/02 14:20:08;;;;;;;7.55;4.30;;;;;;;;;;4959366;28;20031;-89
2021/09/02 14:22:34;;;;;;;8.18;4.65;;;;;;;;;;4962664;28;20466;-88
2021/09/02 14:24:59;;;;;;;6.85;4.53;;;;;;;;;;4959954;28;20054;-88
2021/09/02 14:27:28;;;;;;;6.60;4.47;;;;;;;;;;4967595;28;20082;-88
2021/09/02 14:29:53;;;;;;;6.60;4.80;;;;;;;;;;4941930;28;20039;-88
2021/09/02 14:32:19;;;;;;;7.57;4.50;;;;;;;;;;4969192;28;20481;-86
2021/09/02 14:34:44;;;;;;;8.27;4.35;;;;;;;;;;4959220;28;20019;-87
2021/09/02 14:37:09;;;;;;;6.15;4.20;;;;;;;;;;4953704;28;20058;-88
2021/09/02 14:39:35;;;;;;;6.82;4.28;;;;;;;;;;4957794;28;20030;-84
2021/09/02 14:42:00;;;;;;;4.93;3.97;;;;;;;;;;4959516;28;20106;-83
2021/09/02 14:44:25;;;;;;;6.13;4.37;;;;;;;;;;4949379;28;20054;-84
2021/09/02 14:46:50;;;;;;;9.30;4.23;;;;;;;;;;4962834;28;20026;-83
2021/09/02 14:49:16;;;;;;;6.03;4.00;;;;;;;;;;4959933;28;20047;-83
2021/09/02 14:51:41;;;;;;;5.75;4.05;;;;;;;;;;4969374;28;20023;-83
2021/09/02 14:54:07;;;;;;;6.22;4.10;;;;;;;;;;4965155;28;20482;-83
2021/09/02 14:56:32;;;;;;;7.25;4.13;;;;;;;;;;4947427;28;20078;-82
2021/09/02 14:58:58;;;;;;;8.10;4.80;;;;;;;;;;4956660;28;20102;-83
2021/09/02 15:01:23;;;;;;;7.17;4.53;;;;;;;;;;4956208;28;20509;-82